Forside
METAR-TAF:

METAR-TAF

Lufthavne :

Pittsfield Penstone Municipal Airport

Pittsfield, Illinois, USA

Breddekreds: 39-38-20N, længdekreds: 090-46-42W, højde: 216 m

Aktuelle vejr

Denne rapport blev lavet for 29 minutter siden, kl. 18:15 UTC
Vind 16 kt fra sydøst
Temperatur -7°C
Fugtighed 73%
Tryk 1029 hPa
Sigt: 16.1 km
Spredte skyer i en højde af 1800 ft

METAR: KPPQ 211815Z AUTO 14016KT 10SM SCT018 M07/M11 A3039 RMK AO2 T10691106

Tid: 12:44 (18:44 UTC)


TAF: fraværende

Vejrobservationer og prognoser fra mere end 4000 lufthavne (METAR og TAF).

De gule og røde prikker repræsenterer de meteorologiske stationer.

Flyt musen over at se navnet på stationen.

Så klik over at se vejr observationer og prognoser.

At skifte det kort: Klik på de grønne knapper med et sort kors for at zoome ind; på den grønne knap med en bindestreg for at zoome ud; eller på de grønne pile for tilstødende kort.


METAR-TAF: